createdAt,value
2022-12-27T00:01:33.580Z,99.90
2022-12-27T00:04:02.863Z,99.90
2022-12-27T00:06:32.675Z,99.90
2022-12-27T00:09:03.869Z,99.90
2022-12-27T00:11:58.040Z,99.90
2022-12-27T00:14:29.322Z,99.90
2022-12-27T00:16:58.423Z,99.90
2022-12-27T00:19:27.418Z,99.90
2022-12-27T00:21:56.644Z,99.90
2022-12-27T00:24:27.281Z,99.90
2022-12-27T00:26:56.618Z,99.90
2022-12-27T00:29:26.529Z,99.90
2022-12-27T00:31:55.603Z,99.90
2022-12-27T00:34:24.942Z,99.90
2022-12-27T00:36:53.990Z,99.90
2022-12-27T00:39:22.992Z,99.90
2022-12-27T00:41:53.514Z,99.90
2022-12-27T00:44:22.596Z,99.90
2022-12-27T00:46:51.510Z,99.90
2022-12-27T00:49:20.601Z,99.90
2022-12-27T00:51:49.833Z,99.90
2022-12-27T00:54:18.734Z,99.90
2022-12-27T00:56:47.889Z,99.90
2022-12-27T00:59:18.267Z,99.90
2022-12-27T01:01:47.568Z,99.90
2022-12-27T01:04:17.452Z,99.90
2022-12-27T01:06:46.858Z,99.90
2022-12-27T01:09:15.861Z,99.90
2022-12-27T01:11:44.850Z,99.90
2022-12-27T01:14:13.998Z,99.90
2022-12-27T01:16:44.616Z,99.90
2022-12-27T01:19:14.734Z,99.90
2022-12-27T01:21:44.067Z,99.90
2022-12-27T01:24:13.180Z,99.90
2022-12-27T01:26:42.214Z,99.90
2022-12-27T01:29:14.419Z,99.90
2022-12-27T01:31:45.006Z,99.90
2022-12-27T01:34:14.233Z,99.90
2022-12-27T01:36:43.260Z,99.90
2022-12-27T01:39:12.962Z,99.90
2022-12-27T01:42:01.117Z,99.90
2022-12-27T01:44:54.377Z,99.90
2022-12-27T01:47:32.802Z,99.90
2022-12-27T01:50:08.606Z,99.90
2022-12-27T01:52:42.822Z,99.90
2022-12-27T01:55:19.768Z,99.90
2022-12-27T01:57:50.804Z,99.90
2022-12-27T02:00:19.978Z,99.90
2022-12-27T02:02:51.739Z,99.90
2022-12-27T02:05:23.403Z,99.90
2022-12-27T02:08:21.859Z,99.90
2022-12-27T02:10:52.051Z,99.90
2022-12-27T02:13:22.116Z,99.90
2022-12-27T02:15:51.396Z,99.90
2022-12-27T02:18:21.815Z,99.90
2022-12-27T02:21:24.779Z,99.90
2022-12-27T02:24:28.952Z,99.90
2022-12-27T02:27:05.932Z,99.90
2022-12-27T02:30:01.588Z,99.90
2022-12-27T02:32:35.282Z,99.90
2022-12-27T02:35:18.465Z,99.90
2022-12-27T02:37:53.193Z,99.90
2022-12-27T02:40:42.655Z,99.90
2022-12-27T02:43:48.539Z,99.90
2022-12-27T02:46:41.222Z,99.90
2022-12-27T02:49:43.304Z,99.90
2022-12-27T02:52:41.279Z,99.90
2022-12-27T02:55:34.241Z,99.90
2022-12-27T02:58:21.604Z,99.90
2022-12-27T03:01:15.822Z,99.90
2022-12-27T03:04:06.199Z,99.90
2022-12-27T03:07:02.158Z,99.90
2022-12-27T03:10:13.063Z,99.90
2022-12-27T03:13:11.073Z,99.90
2022-12-27T03:15:58.468Z,99.90
2022-12-27T03:18:39.331Z,99.90
2022-12-27T03:21:27.449Z,99.90
2022-12-27T03:24:14.986Z,99.90
2022-12-27T03:26:48.231Z,99.90
2022-12-27T03:29:38.523Z,99.90
2022-12-27T03:32:24.224Z,99.90
2022-12-27T03:35:17.347Z,99.90
2022-12-27T03:38:05.498Z,99.90
2022-12-27T03:41:06.336Z,99.90
2022-12-27T03:43:35.305Z,99.90
2022-12-27T03:46:33.893Z,99.90
2022-12-27T03:49:29.320Z,99.90
2022-12-27T03:52:02.797Z,99.90
2022-12-27T03:54:36.483Z,99.90
2022-12-27T03:57:08.024Z,99.90
2022-12-27T03:59:37.610Z,99.90
2022-12-27T04:02:07.392Z,99.90
2022-12-27T04:04:37.124Z,99.90
2022-12-27T04:07:06.504Z,99.90
2022-12-27T04:09:54.135Z,99.90
2022-12-27T04:12:40.689Z,99.90
2022-12-27T04:15:27.517Z,99.90
2022-12-27T04:18:13.616Z,99.90
2022-12-27T04:21:00.773Z,99.90
2022-12-27T04:23:47.083Z,99.90
2022-12-27T04:26:34.773Z,99.90
2022-12-27T04:29:21.013Z,99.90
2022-12-27T04:32:07.110Z,99.90
2022-12-27T04:34:44.057Z,99.90
2022-12-27T04:37:15.345Z,99.90
2022-12-27T04:40:05.577Z,99.90
2022-12-27T04:42:53.598Z,99.90
2022-12-27T04:45:39.920Z,99.90
2022-12-27T04:48:31.335Z,99.90
2022-12-27T04:51:18.382Z,99.90
2022-12-27T04:54:04.908Z,99.90
2022-12-27T04:56:33.978Z,99.90
2022-12-27T04:59:21.408Z,99.90
2022-12-27T05:02:06.219Z,99.90
2022-12-27T05:04:36.912Z,99.90
2022-12-27T05:07:20.995Z,99.90
2022-12-27T05:10:07.851Z,99.90
2022-12-27T05:13:24.263Z,99.90
2022-12-27T05:15:54.741Z,99.90
2022-12-27T05:18:42.297Z,99.90
2022-12-27T05:21:11.358Z,99.90
2022-12-27T05:24:04.924Z,99.90
2022-12-27T05:26:35.765Z,99.90
2022-12-27T05:29:05.210Z,99.90
2022-12-27T05:31:37.161Z,99.90
2022-12-27T05:34:07.388Z,99.90
2022-12-27T05:36:36.480Z,99.90
2022-12-27T05:39:05.741Z,99.90
2022-12-27T05:41:34.874Z,99.90
2022-12-27T05:44:07.365Z,99.90
2022-12-27T05:46:38.442Z,99.90
2022-12-27T05:49:08.482Z,99.90
2022-12-27T05:51:38.514Z,99.90
2022-12-27T05:54:07.712Z,99.90
2022-12-27T05:56:37.509Z,99.90
2022-12-27T05:59:08.322Z,99.90
2022-12-27T06:01:39.189Z,99.90
2022-12-27T06:04:08.465Z,99.90
2022-12-27T06:06:37.466Z,99.90
2022-12-27T06:09:06.471Z,99.90
2022-12-27T06:11:35.816Z,99.90
2022-12-27T06:14:04.891Z,99.90
2022-12-27T06:16:34.071Z,99.90
2022-12-27T06:19:04.888Z,99.90
2022-12-27T06:21:34.048Z,99.90
2022-12-27T06:24:02.950Z,99.90
2022-12-27T06:26:33.781Z,99.90
2022-12-27T06:29:03.213Z,99.90
2022-12-27T06:31:32.348Z,99.90
2022-12-27T06:34:01.364Z,99.90
2022-12-27T06:36:32.751Z,99.90
2022-12-27T06:39:02.144Z,99.90
2022-12-27T06:41:31.573Z,99.90
2022-12-27T06:44:00.585Z,99.90
2022-12-27T06:46:29.701Z,99.90
2022-12-27T06:48:59.311Z,99.90
2022-12-27T06:51:28.400Z,99.90
2022-12-27T06:53:58.999Z,99.90
2022-12-27T06:56:28.117Z,99.90
2022-12-27T06:58:57.221Z,99.90
2022-12-27T07:01:28.452Z,99.90
2022-12-27T07:03:59.512Z,99.90
2022-12-27T07:06:30.183Z,99.70
2022-12-27T07:09:02.145Z,98.50
2022-12-27T07:11:36.756Z,98.10
2022-12-27T07:14:06.315Z,97.90
2022-12-27T07:16:35.506Z,98.10
2022-12-27T07:19:04.426Z,98.30
2022-12-27T07:21:33.708Z,98.80
2022-12-27T07:24:23.024Z,98.60
2022-12-27T07:26:52.136Z,99.50
2022-12-27T07:29:21.161Z,97.60
2022-12-27T07:31:50.139Z,93.90
2022-12-27T07:34:19.293Z,91.70
2022-12-27T07:36:48.392Z,88.30
2022-12-27T07:39:17.734Z,84.10
2022-12-27T07:41:48.303Z,80.90
2022-12-27T07:44:17.665Z,79.20
2022-12-27T07:46:47.103Z,77.70
2022-12-27T07:49:18.049Z,74.80
2022-12-27T07:51:47.402Z,71.80
2022-12-27T07:54:16.550Z,70.70
2022-12-27T07:56:45.566Z,70.00
2022-12-27T07:59:16.668Z,70.20
2022-12-27T08:02:03.312Z,69.00
2022-12-27T08:04:33.981Z,67.90
2022-12-27T08:07:06.448Z,65.60
2022-12-27T08:09:39.433Z,64.10
2022-12-27T08:12:09.391Z,63.10
2022-12-27T08:14:39.995Z,62.10
2022-12-27T08:17:16.519Z,60.10
2022-12-27T08:19:47.246Z,59.70
2022-12-27T08:22:17.042Z,59.50
2022-12-27T08:24:46.092Z,58.90
2022-12-27T08:27:15.181Z,57.30
2022-12-27T08:29:47.222Z,56.80
2022-12-27T08:32:16.565Z,57.10
2022-12-27T08:34:45.542Z,58.10
2022-12-27T08:37:16.043Z,58.30
2022-12-27T08:39:45.236Z,56.60
2022-12-27T08:42:15.319Z,55.20
2022-12-27T08:44:45.857Z,54.00
2022-12-27T08:47:14.857Z,53.10
2022-12-27T08:49:43.772Z,52.70
2022-12-27T08:52:13.009Z,52.20
2022-12-27T08:54:42.014Z,51.90
2022-12-27T08:57:11.145Z,52.50
2022-12-27T08:59:40.220Z,51.90
2022-12-27T09:02:11.608Z,51.10
2022-12-27T09:04:40.843Z,50.50
2022-12-27T09:07:09.835Z,50.10
2022-12-27T09:09:39.118Z,50.10
2022-12-27T09:12:09.499Z,50.10
2022-12-27T09:14:38.769Z,49.50
2022-12-27T09:17:09.612Z,49.70
2022-12-27T09:19:39.960Z,49.00
2022-12-27T09:22:09.144Z,48.00
2022-12-27T09:24:38.232Z,47.20
2022-12-27T09:27:07.766Z,47.20
2022-12-27T09:29:36.916Z,46.60
2022-12-27T09:32:06.445Z,45.70
2022-12-27T09:34:35.459Z,45.30
2022-12-27T09:37:05.870Z,44.90
2022-12-27T09:39:34.937Z,43.30
2022-12-27T09:42:46.235Z,42.00
2022-12-27T09:45:09.040Z,40.40
2022-12-27T09:47:50.024Z,39.90
2022-12-27T09:50:25.413Z,40.20
2022-12-27T09:53:02.068Z,40.60
2022-12-27T09:55:43.553Z,41.30
2022-12-27T09:58:39.350Z,40.70
2022-12-27T10:01:30.321Z,39.50
2022-12-27T10:04:00.368Z,39.20
2022-12-27T10:07:02.725Z,39.40
2022-12-27T10:09:44.316Z,39.10
2022-12-27T10:12:31.566Z,38.50
2022-12-27T10:15:12.712Z,37.20
2022-12-27T10:17:56.639Z,37.50
2022-12-27T10:20:34.857Z,36.70
2022-12-27T10:23:07.093Z,37.60
2022-12-27T10:25:40.530Z,38.30
2022-12-27T10:28:17.648Z,38.10
2022-12-27T10:30:47.039Z,38.30
2022-12-27T10:33:22.748Z,37.00
2022-12-27T10:35:52.034Z,36.10
2022-12-27T10:38:21.462Z,36.00
2022-12-27T10:40:59.174Z,35.10
2022-12-27T10:43:37.255Z,35.40
2022-12-27T10:46:14.209Z,36.60
2022-12-27T10:49:20.239Z,36.90
2022-12-27T10:51:43.517Z,36.20
2022-12-27T10:54:15.278Z,36.40
2022-12-27T10:56:45.948Z,36.30
2022-12-27T10:59:17.162Z,36.70
2022-12-27T11:01:47.360Z,37.40
2022-12-27T11:04:36.124Z,38.00
2022-12-27T11:07:20.929Z,38.70
2022-12-27T11:09:51.428Z,39.20
2022-12-27T11:12:24.626Z,39.20
2022-12-27T11:14:58.898Z,39.60
2022-12-27T11:17:34.792Z,39.60
2022-12-27T11:20:20.454Z,40.00
2022-12-27T11:22:52.709Z,40.20
2022-12-27T11:25:22.451Z,40.60
2022-12-27T11:27:56.700Z,40.80
2022-12-27T11:30:30.363Z,41.00
2022-12-27T11:33:04.579Z,40.50
2022-12-27T11:35:46.565Z,41.00
2022-12-27T11:38:24.940Z,40.70
2022-12-27T11:41:01.958Z,40.60
2022-12-27T11:43:37.520Z,40.60
2022-12-27T11:46:12.421Z,41.00
2022-12-27T11:48:46.853Z,41.30
2022-12-27T11:51:40.649Z,41.60
2022-12-27T11:54:27.272Z,41.40
2022-12-27T11:57:10.075Z,41.30
2022-12-27T11:59:55.702Z,41.70
2022-12-27T12:02:45.597Z,41.60
2022-12-27T12:05:44.189Z,41.50
2022-12-27T12:08:36.704Z,41.90
2022-12-27T12:11:28.952Z,41.80
2022-12-27T12:14:22.159Z,42.10
2022-12-27T12:17:48.782Z,42.70
2022-12-27T12:20:50.511Z,42.40
2022-12-27T12:23:31.751Z,42.50
2022-12-27T12:26:19.069Z,42.80
2022-12-27T12:29:15.737Z,42.90
2022-12-27T12:32:13.628Z,43.00
2022-12-27T12:35:11.863Z,42.90
2022-12-27T12:38:03.915Z,42.90
2022-12-27T12:41:18.103Z,43.00
2022-12-27T12:44:29.157Z,42.80
2022-12-27T12:47:05.123Z,43.00
2022-12-27T12:50:06.556Z,42.80
2022-12-27T12:53:01.435Z,42.70
2022-12-27T12:55:41.770Z,42.60
2022-12-27T12:58:27.923Z,43.10
2022-12-27T13:01:21.882Z,43.10
2022-12-27T13:04:18.801Z,43.10
2022-12-27T13:07:08.573Z,42.90
2022-12-27T13:09:52.959Z,43.10
2022-12-27T13:12:27.587Z,43.00
2022-12-27T13:15:25.715Z,42.80
2022-12-27T13:18:05.894Z,42.90
2022-12-27T13:20:53.518Z,42.90
2022-12-27T13:23:35.766Z,42.50
2022-12-27T13:26:14.493Z,42.50
2022-12-27T13:28:54.672Z,42.70
2022-12-27T13:31:36.412Z,42.80
2022-12-27T13:34:21.966Z,42.80
2022-12-27T13:37:07.012Z,42.80
2022-12-27T13:39:50.763Z,42.90
2022-12-27T13:42:43.758Z,43.10
2022-12-27T13:45:27.916Z,43.30
2022-12-27T13:48:10.789Z,43.10
2022-12-27T13:51:02.015Z,43.10
2022-12-27T13:54:07.631Z,43.60
2022-12-27T13:56:55.123Z,43.70
2022-12-27T13:59:56.739Z,43.60
2022-12-27T14:02:58.498Z,43.60
2022-12-27T14:06:06.719Z,43.60
2022-12-27T14:08:54.713Z,44.10
2022-12-27T14:11:39.411Z,44.30
2022-12-27T14:14:13.830Z,44.60
2022-12-27T14:17:01.706Z,45.10
2022-12-27T14:19:59.083Z,45.60
2022-12-27T14:23:01.189Z,45.70
2022-12-27T14:26:24.605Z,46.00
2022-12-27T14:29:27.143Z,46.10
2022-12-27T14:32:41.468Z,46.20
2022-12-27T14:35:45.840Z,46.40
2022-12-27T14:38:55.467Z,46.60
2022-12-27T14:41:50.355Z,46.70
2022-12-27T14:45:19.482Z,46.70
2022-12-27T14:48:05.780Z,47.00
2022-12-27T14:51:19.776Z,47.40
2022-12-27T14:54:46.656Z,47.70
2022-12-27T14:57:33.461Z,48.10
2022-12-27T15:00:12.916Z,48.30
2022-12-27T15:03:17.375Z,48.60
2022-12-27T15:06:00.262Z,49.20
2022-12-27T15:08:48.672Z,49.30
2022-12-27T15:11:34.636Z,49.80
2022-12-27T15:14:25.464Z,50.20
2022-12-27T15:17:04.026Z,50.50
2022-12-27T15:19:53.180Z,50.80
2022-12-27T15:22:30.419Z,51.40
2022-12-27T15:25:08.791Z,51.60
2022-12-27T15:28:08.150Z,52.00
2022-12-27T15:30:48.127Z,52.30
2022-12-27T15:33:26.497Z,52.50
2022-12-27T15:36:05.331Z,52.80
2022-12-27T15:38:47.159Z,53.10
2022-12-27T15:41:38.833Z,53.40
2022-12-27T15:44:50.093Z,53.60
2022-12-27T15:47:43.531Z,53.80
2022-12-27T15:50:30.557Z,54.00
2022-12-27T15:53:37.834Z,54.30
2022-12-27T15:56:36.554Z,54.60
2022-12-27T15:59:39.141Z,55.00
2022-12-27T16:02:30.710Z,55.30
2022-12-27T16:05:48.216Z,55.70
2022-12-27T16:08:39.949Z,56.90
2022-12-27T16:11:13.717Z,57.40
2022-12-27T16:13:51.953Z,57.70
2022-12-27T16:16:57.227Z,58.10
2022-12-27T16:19:56.148Z,58.50
2022-12-27T16:22:34.471Z,58.90
2022-12-27T16:25:30.281Z,59.30
2022-12-27T16:28:06.208Z,59.80
2022-12-27T16:30:43.317Z,60.40
2022-12-27T16:33:35.450Z,60.90
2022-12-27T16:36:08.333Z,61.20
2022-12-27T16:38:41.347Z,61.30
2022-12-27T16:41:19.872Z,61.50
2022-12-27T16:44:04.944Z,61.80
2022-12-27T16:47:07.906Z,62.10
2022-12-27T16:49:55.713Z,62.30
2022-12-27T16:52:48.836Z,62.40
2022-12-27T16:56:16.195Z,62.40
2022-12-27T16:58:45.514Z,62.50
2022-12-27T17:01:30.687Z,62.50
2022-12-27T17:04:00.322Z,62.80
2022-12-27T17:07:02.821Z,63.00
2022-12-27T17:09:43.249Z,63.00
2022-12-27T17:12:23.112Z,63.30
2022-12-27T17:15:02.927Z,63.40
2022-12-27T17:17:56.924Z,63.60
2022-12-27T17:20:27.100Z,63.80
2022-12-27T17:22:59.245Z,64.00
2022-12-27T17:25:39.009Z,64.20
2022-12-27T17:28:15.787Z,64.30
2022-12-27T17:30:53.945Z,64.50
2022-12-27T17:33:37.905Z,64.60
2022-12-27T17:36:21.670Z,64.80
2022-12-27T17:39:10.247Z,65.10
2022-12-27T17:42:08.597Z,65.40
2022-12-27T17:44:50.577Z,65.60
2022-12-27T17:47:37.588Z,66.00
2022-12-27T17:50:13.275Z,66.20
2022-12-27T17:52:59.544Z,66.50
2022-12-27T17:55:48.072Z,66.80
2022-12-27T17:58:18.844Z,66.90
2022-12-27T18:00:57.589Z,67.10
2022-12-27T18:03:32.891Z,67.80
2022-12-27T18:06:02.214Z,67.50
2022-12-27T18:08:34.313Z,67.70
2022-12-27T18:11:05.691Z,68.00
2022-12-27T18:13:38.585Z,68.20
2022-12-27T18:16:16.974Z,68.50
2022-12-27T18:18:49.571Z,68.60
2022-12-27T18:21:26.866Z,68.70
2022-12-27T18:23:56.759Z,68.90
2022-12-27T18:26:35.731Z,69.10
2022-12-27T18:29:05.733Z,69.30
2022-12-27T18:31:39.772Z,69.30
2022-12-27T18:34:17.463Z,69.50
2022-12-27T18:36:51.806Z,69.60
2022-12-27T18:39:29.800Z,69.50
2022-12-27T18:42:01.204Z,69.60
2022-12-27T18:44:34.165Z,69.70
2022-12-27T18:47:06.105Z,69.70
2022-12-27T18:49:37.115Z,69.90
2022-12-27T18:52:15.074Z,70.10
2022-12-27T18:54:44.583Z,70.30
2022-12-27T18:57:31.655Z,70.50
2022-12-27T19:00:15.239Z,70.80
2022-12-27T19:02:46.698Z,70.80
2022-12-27T19:05:28.011Z,71.10
2022-12-27T19:08:02.503Z,71.30
2022-12-27T19:10:33.767Z,71.50
2022-12-27T19:13:03.321Z,71.80
2022-12-27T19:15:41.804Z,72.10
2022-12-27T19:18:33.568Z,72.50
2022-12-27T19:21:06.102Z,72.60
2022-12-27T19:23:36.865Z,72.70
2022-12-27T19:26:09.552Z,72.80
2022-12-27T19:28:40.317Z,73.10
2022-12-27T19:31:18.616Z,73.30
2022-12-27T19:33:53.816Z,73.50
2022-12-27T19:36:27.464Z,73.70
2022-12-27T19:39:21.964Z,73.90
2022-12-27T19:41:53.413Z,74.20
2022-12-27T19:44:30.471Z,74.60
2022-12-27T19:47:06.696Z,75.00
2022-12-27T19:49:43.034Z,75.40
2022-12-27T19:52:23.657Z,75.80
2022-12-27T19:54:58.313Z,76.20
2022-12-27T19:57:28.165Z,76.30
2022-12-27T19:59:58.498Z,76.50
2022-12-27T20:02:28.487Z,76.50
2022-12-27T20:05:17.980Z,76.70
2022-12-27T20:08:07.971Z,76.80
2022-12-27T20:10:38.616Z,77.10
2022-12-27T20:13:08.004Z,77.50
2022-12-27T20:15:37.490Z,77.70
2022-12-27T20:18:06.575Z,77.90
2022-12-27T20:20:36.934Z,78.10
2022-12-27T20:23:06.196Z,78.30
2022-12-27T20:25:36.625Z,78.40
2022-12-27T20:28:06.213Z,78.70
2022-12-27T20:30:35.397Z,78.80
2022-12-27T20:33:04.615Z,78.90
2022-12-27T20:35:34.012Z,78.80
2022-12-27T20:38:04.684Z,78.90
2022-12-27T20:40:34.336Z,78.90
2022-12-27T20:43:03.683Z,78.80
2022-12-27T20:45:33.016Z,78.70
2022-12-27T20:48:02.067Z,78.70
2022-12-27T20:50:31.207Z,78.70
2022-12-27T20:53:00.262Z,78.60
2022-12-27T20:55:31.621Z,78.60
2022-12-27T20:58:01.275Z,78.70
2022-12-27T21:00:48.816Z,78.80
2022-12-27T21:03:20.932Z,78.90
2022-12-27T21:05:50.126Z,79.20
2022-12-27T21:08:19.309Z,79.40
2022-12-27T21:10:49.903Z,79.70
2022-12-27T21:13:19.116Z,79.90
2022-12-27T21:15:48.238Z,80.20
2022-12-27T21:18:17.359Z,80.60
2022-12-27T21:20:46.535Z,81.00
2022-12-27T21:23:15.470Z,81.50
2022-12-27T21:25:44.803Z,81.70
2022-12-27T21:28:33.717Z,82.00
2022-12-27T21:31:02.861Z,82.30
2022-12-27T21:33:32.580Z,82.50
2022-12-27T21:36:03.805Z,82.50
2022-12-27T21:38:33.027Z,82.60
2022-12-27T21:41:22.369Z,82.60
2022-12-27T21:43:53.493Z,82.80
2022-12-27T21:46:24.675Z,83.00
2022-12-27T21:48:56.981Z,83.30
2022-12-27T21:51:27.099Z,83.70
2022-12-27T21:53:56.937Z,84.00
2022-12-27T21:56:26.644Z,84.10
2022-12-27T21:58:57.623Z,84.50
2022-12-27T22:01:28.782Z,84.80
2022-12-27T22:03:59.204Z,85.10
2022-12-27T22:06:29.925Z,85.30
2022-12-27T22:09:01.540Z,85.60
2022-12-27T22:11:31.764Z,85.80
2022-12-27T22:14:02.780Z,86.00
2022-12-27T22:16:33.407Z,86.00
2022-12-27T22:19:02.677Z,86.20
2022-12-27T22:21:33.820Z,86.10
2022-12-27T22:24:04.002Z,86.00
2022-12-27T22:26:51.869Z,85.80
2022-12-27T22:29:22.452Z,85.50
2022-12-27T22:31:51.833Z,85.70
2022-12-27T22:34:20.894Z,86.20
2022-12-27T22:36:53.081Z,86.70
2022-12-27T22:39:22.267Z,87.10
2022-12-27T22:41:51.516Z,87.50
2022-12-27T22:44:21.981Z,87.80
2022-12-27T22:47:24.499Z,88.00
2022-12-27T22:49:40.389Z,88.30
2022-12-27T22:52:09.415Z,88.70
2022-12-27T22:55:04.443Z,88.90
2022-12-27T22:57:27.474Z,89.10
2022-12-27T22:59:57.927Z,89.40
2022-12-27T23:02:27.070Z,89.30
2022-12-27T23:04:56.293Z,89.60
2022-12-27T23:08:03.446Z,89.80
2022-12-27T23:10:14.480Z,90.00
2022-12-27T23:12:43.374Z,90.10
2022-12-27T23:15:14.318Z,90.20
2022-12-27T23:17:43.554Z,90.30
2022-12-27T23:20:13.728Z,90.20
2022-12-27T23:22:42.822Z,90.20
2022-12-27T23:25:11.874Z,90.20
2022-12-27T23:27:40.956Z,90.30
2022-12-27T23:30:11.334Z,90.40
2022-12-27T23:32:41.859Z,90.50
2022-12-27T23:35:11.509Z,90.40
2022-12-27T23:37:40.563Z,90.50
2022-12-27T23:40:10.778Z,90.50
2022-12-27T23:42:39.891Z,90.70
2022-12-27T23:45:09.948Z,90.80
2022-12-27T23:47:39.035Z,91.00
2022-12-27T23:50:13.282Z,91.20
2022-12-27T23:52:45.957Z,91.30
2022-12-27T23:55:15.209Z,91.40
2022-12-27T23:57:44.367Z,91.50
